METAR Data
IDs: Format: Raw Decoded Include TAF

Data at: 0020 UTC 26 Oct 2021

PAGH 252356Z AUTO 29008KT 9SM OVC010 M03/M05 A2931 RMK AO2 SLP931 60000 T10331050 11033 21039 51004 FZRANO
PAGH 252352Z AUTO 28008KT 9SM OVC010 M03/M04 A2931 RMK AO2 FZRANO
PAGH 252256Z AUTO 28008KT 4SM BR OVC006 M04/M04 A2930 RMK AO2 SNE46 CIG 006V010 SLP928 P0000 T10391044 FZRANO
PAGH 252211Z AUTO 26010KT 3SM -SN BR OVC006 M04/M04 A2930 RMK AO2 P0000 FZRANO
PAGH 252200Z AUTO 26006KT 1 3/4SM -SN BR OVC006 M03/M04 A2930 RMK AO2 P0000 FZRANO
PAGH 252156Z AUTO 27007KT 4SM -SN BR OVC006 M04/M04 A2930 RMK AO2 SLP927 P0000 T10391044 FZRANO
PAGH 252107Z AUTO 28007KT 3SM -SN BR OVC008 M03/M04 A2929 RMK AO2 P0000 FZRANO
PAGH 252056Z AUTO 29009KT 3SM -SN BR OVC010 M03/M04 A2929 RMK AO2 SLP922 P0000 60000 T10331044 51009 FZRANO
PAGH 252047Z AUTO 28010KT 4SM -SN BR BKN010 OVC015 M03/M04 A2928 RMK AO2 P0000 FZRANO
PAGH 252026Z AUTO 26005KT 2 1/2SM -SN BR BKN010 BKN015 OVC033 M03/M04 A2928 RMK AO2 VIS 1 1/2V5 P0000 FZRANO
PAGH 252014Z AUTO 26004KT 2 1/2SM -SN BR SCT010 BKN015 OVC033 M03/M04 A2928 RMK AO2 VIS 1 3/4V3 P0000 FZRANO
PAGH 252009Z AUTO 25005KT 3SM -SN BR BKN010 BKN015 OVC023 M03/M04 A2928 RMK AO2 P0000 FZRANO
PAGH 251956Z AUTO 26006KT 4SM -SN BR SCT010 OVC023 M03/M04 A2928 RMK AO2 SLP919 P0000 T10331039 FZRANO
PAGH 251946Z AUTO VRB05KT 4SM -SN BR FEW008 OVC023 M03/M04 A2927 RMK AO2 P0000 FZRANO
PAGH 251856Z AUTO 29003KT 7SM -SN BKN006 OVC040 M03/M03 A2927 RMK AO2 SLP917 P0000 T10331033 FZRANO
PAGH 251829Z AUTO 27003KT 9SM -SN FEW006 BKN019 OVC040 M03/M04 A2926 RMK AO2 P0000 FZRANO
PAGH 251756Z AUTO 28003KT 9SM -SN BKN019 OVC039 M03/M04 A2926 RMK AO2 SLP913 P0000 60000 T10331039 11011 21033 58002 FZRANO
PAGH 251741Z AUTO 28003KT 9SM -SN FEW005 OVC039 M03/M03 A2926 RMK AO2 P0000 FZRANO
PAGH 251706Z AUTO 27005KT 5SM -SN BR SCT014 OVC041 M03/M03 A2926 RMK AO2 P0000 FZRANO
PAGH 251656Z AUTO 28005KT 9SM -SN BKN014 OVC039 M03/M03 A2926 RMK AO2 SLP916 P0000 T10281033 FZRANO
PAGH 251640Z AUTO 28006KT 9SM -SN SCT008 BKN012 OVC037 M03/M03 A2926 RMK AO2 P0000 FZRANO
PAGH 251556Z AUTO 29005KT 4SM -SN BR OVC008 M02/M02 A2926 RMK AO2 CIG 004V009 SLP916 P0000 T10171022 FZRANO
PAGH 251526Z AUTO 28005KT 5SM -SN BR BKN008 OVC027 M02/M02 A2926 RMK AO2 P0000 FZRANO
PAGH 251512Z AUTO 28006KT 3SM -SN BR FEW006 BKN029 OVC036 M02/M02 A2927 RMK AO2 P0000 FZRANO
PAGH 251505Z AUTO 29007KT 2 1/2SM -SN BR FEW017 BKN027 OVC036 M02/M02 A2927 RMK AO2 P0000 FZRANO
PAGH 251456Z AUTO 29005KT 2SM -SN BR SCT017 SCT029 OVC036 M02/M02 A2927 RMK AO2 SLP917 P0000 60000 T10171017 56004 FZRANO
PAGH 251413Z AUTO 30005KT 2 1/2SM -SN BR FEW004 SCT009 OVC015 M01/M02 A2927 RMK AO2 P0000 FZRANO
PAGH 251356Z AUTO 30008KT 2SM -SN BR FEW005 BKN010 OVC013 M01/M02 A2927 RMK AO2 CIG 007V011 SLP917 P0000 T10111017 FZRANO
PAGH 251345Z AUTO 29006KT 2 1/2SM -SN BR SCT005 OVC010 M01/M02 A2927 RMK AO2 CIG 007V013 P0000 FZRANO
PAGH 251318Z AUTO 00000KT 3SM -SN BR BKN005 OVC014 M01/M01 A2927 RMK AO2 P0000 FZRANO
PAGH 251256Z AUTO 16003KT 2 1/2SM -SN BR FEW005 OVC010 M01/M01 A2927 RMK AO2 CIG 008V013 SLP919 P0000 T10111011 FZRANO
PAGH 251248Z AUTO 17004KT 1 3/4SM -SN BR SCT005 BKN010 OVC015 M01/M01 A2927 RMK AO2 CIG 008V011 P0000 FZRANO
PAGH 251239Z AUTO 17003KT 1 3/4SM -SN BR BKN010 OVC017 M01/M01 A2927 RMK AO2 CIG 008V011 P0000 FZRANO
PAGH 251231Z AUTO 14003KT 2SM -SN BR FEW010 BKN015 OVC020 M01/M01 A2927 RMK AO2 P0000 FZRANO
PAGH 251156Z AUTO 13004KT 3SM -SN BR BKN022 BKN029 OVC034 M01/M01 A2928 RMK AO2 SLP921 P0000 60000 70003 T10111011 10000 21011 56006 FZRANO
PAGH 251151Z AUTO 12004KT 2 1/2SM -SN BR BKN022 BKN028 OVC036 M01/M01 A2928 RMK AO2 VIS 2V3 P0000 FZRANO
PAGH 251116Z AUTO 13005KT 8SM -SN BKN020 OVC034 M01/M01 A2929 RMK AO2 P0000 FZRANO
PAGH 251056Z AUTO 13006KT 10SM -SN FEW017 OVC034 M01/M01 A2929 RMK AO2 UPE49SNB49 SLP925 P0000 T10061011 FZRANO
PAGH 251048Z AUTO 13006KT 10SM UP SCT017 OVC034 M01/M01 A2929 RMK AO2 P0000 FZRANO
PAGH 251017Z AUTO 16005KT 10SM UP BKN017 OVC034 M01/M01 A2930 RMK AO2 P0000 FZRANO
PAGH 250956Z AUTO 11005KT 10SM UP OVC036 M01/M01 A2930 RMK AO2 UPB39SNE39 SLP927 P0000 T10061011 FZRANO
PAGH 250904Z AUTO 10007KT 9SM -SN SCT029 BKN038 OVC055 M01/M01 A2931 RMK AO2 P0000 FZRANO
PAGH 250856Z AUTO 09008KT 9SM -SN BKN029 OVC055 M01/M01 A2931 RMK AO2 UPB31E48SNE31B48 SLP930 P0000 60000 T10061011 400061028 58009 FZRANO
PAGH 250843Z AUTO 10006KT 10SM UP OVC029 M01/M01 A2931 RMK AO2 UPB31SNE31 P0000 FZRANO
PAGH 250812Z AUTO 11006KT 7SM -SN SCT026 OVC042 M01/M01 A2932 RMK AO2 P0000 FZRANO
PAGH 250756Z AUTO 11007KT 4SM -SN BR BKN023 OVC029 M01/M01 A2932 RMK AO2 SLP936 P0000 T10061006 FZRANO
PAGH 250742Z AUTO 11006KT 4SM -SN BR FEW017 OVC026 M01/M01 A2932 RMK AO2 P0000 FZRANO
PAGH 250717Z AUTO 12005KT 2 1/2SM -SN BR FEW012 SCT022 OVC027 M01/M01 A2933 RMK AO2 VIS 1 3/4V5 P0000 FZRANO
PAGH 250656Z AUTO 11004KT 4SM -SN BR SCT010 BKN025 OVC033 00/M01 A2933 RMK AO2 SLP939 P0000 T00001006 FZRANO
PAGH 250653Z AUTO 10004KT 4SM -SN BR SCT010 BKN027 OVC039 00/M01 A2933 RMK AO2 P0000 FZRANO
PAGH 250556Z AUTO 11007KT 10SM -SN FEW020 SCT039 OVC055 00/M01 A2934 RMK AO2 UPB49E56SNB56 SLP942 P0000 60000 T00001011 10006 20000 56010 FZRANO
PAGH 250554Z AUTO 11007KT 10SM UP FEW020 SCT039 OVC055 00/M01 A2934 RMK AO2 UPB49 P0000 FZRANO
PAGH 250527Z AUTO 11007KT 10SM SCT010 BKN020 OVC065 00/M01 A2935 RMK AO2 FZRANO
PAGH 250503Z AUTO 12007KT 10SM BKN010 OVC028 00/M01 A2936 RMK AO2 FZRANO
PAGH 250456Z AUTO 13006KT 10SM SCT010 BKN028 OVC060 00/M01 A2936 RMK AO2 SLP948 T00001011 FZRANO
PAGH 250356Z AUTO 12006KT 10SM OVC024 00/M01 A2937 RMK AO2 SLP952 T00001011 FZRANO
PAGH 250318Z AUTO 10008KT 10SM SCT014 BKN026 OVC060 01/M01 A2938 RMK AO2 FZRANO
PAGH 250303Z AUTO 11007KT 10SM BKN014 BKN026 OVC055 01/M01 A2938 RMK AO2 FZRANO
PAGH 250256Z AUTO 12006KT 10SM SCT014 BKN026 OVC055 01/M01 A2938 RMK AO2 SLP957 T00061011 56008 FZRANO
PAGH 250156Z AUTO 11010KT 10SM OVC045 01/M01 A2939 RMK AO2 SLP959 T00061006 FZRANO
PAGH 250056Z AUTO 11007KT 10SM FEW038 BKN045 OVC065 01/M01 A2940 RMK AO2 SLP961 T00061006 FZRANO
PAGH 242356Z AUTO 10009KT 10SM OVC041 01/M01 A2941 RMK AO2 SLP965 60003 T00061006 10006 20000 58006 FZRANO
PAGH 242318Z AUTO 10007KT 10SM FEW023 BKN033 OVC043 01/M01 A2942 RMK AO2 FZRANO
PAGH 242308Z AUTO 10007KT 10SM BKN023 BKN028 OVC041 01/M01 A2942 RMK AO2 FZRANO
PAGH 242256Z AUTO 11006KT 10SM SCT023 BKN031 OVC039 01/M01 A2942 RMK AO2 SLP970 T00061006 FZRANO
PAGH 242156Z AUTO 11007KT 10SM FEW013 OVC035 01/M01 A2942 RMK AO2 UPB03E12B39E42RAB12E39SNB17E32 SLP971 P0002 T00061006 FZRANO
PAGH 242132Z AUTO 10009KT 8SM -RA SCT013 SCT022 OVC039 01/M01 A2942 RMK AO2 UPB03E12RAB12SNB17E32 P0001 FZRANO
PAGH 242125Z AUTO 09009KT 4SM -SN BR SCT013 BKN024 OVC039 01/M01 A2942 RMK AO2 UPB03E12RAB12E17SNB17 P0001 FZRANO
PAGH 242115Z AUTO 09008KT 7SM -RA BKN013 OVC039 00/M01 A2942 RMK AO2 UPB03E12RAB12 P0001 FZRANO
PAGH 242056Z AUTO 10009KT 10SM FEW013 OVC037 00/M01 A2943 RMK AO2 UPE00B44E51SNB00E44 SLP971 P0001 60001 T00001006 50001 FZRANO
PAGH 242031Z AUTO 11008KT 7SM -SN FEW016 SCT025 OVC035 00/M01 A2943 RMK AO2 UPE00SNB00 P0000 FZRANO
PAGH 241956Z AUTO 11008KT 8SM UP SCT017 BKN025 OVC039 00/M01 A2943 RMK AO2 UPE09B50 SLP971 P0000 T00001006 FZRANO
PAGH 241856Z AUTO 12008KT 10SM UP OVC028 00/M01 A2942 RMK AO2 UPB1758E03B24E26B51SNB03E24 SLP970 P0000 T00001006 FZRANO
PAGH 241756Z AUTO 11007KT 10SM OVC017 M01/M01 A2942 RMK AO2 UPB44E49SNE44 SLP969 P0000 60000 T10061011 11006 21022 50002 FZRANO
PAGH 241712Z AUTO 11009KT 9SM -SN OVC015 M01/M01 A2942 RMK AO2 P0000 FZRANO
PAGH 241656Z AUTO 11007KT 9SM -SN OVC013 M01/M01 A2943 RMK AO2 SLP971 P0000 T10061011 FZRANO
PAGH 241556Z AUTO 12004KT 7SM -SN SCT009 OVC019 M01/M02 A2942 RMK AO2 SLP970 P0000 T10111017 FZRANO
PAGH 241521Z AUTO 12003KT 7SM -SN BKN006 BKN013 OVC023 M02/M02 A2942 RMK AO2 CIG 004V008 P0000 FZRANO
PAGH 241456Z AUTO 11003KT 4SM -SN BR SCT006 OVC023 M02/M02 A2942 RMK AO2 SLP968 P0000 60000 T10171022 51002 FZRANO
PAGH 241447Z AUTO 10003KT 4SM -SN BR BKN006 OVC023 M02/M02 A2941 RMK AO2 CIG 004V008 P0000 FZRANO
PAGH 241406Z AUTO 10004KT 2 1/2SM -SN BR BKN008 OVC046 M02/M02 A2942 RMK AO2 VIS 2V4 P0000 FZRANO
PAGH 241356Z AUTO 10004KT 3SM -SN BR BKN010 OVC046 M02/M02 A2942 RMK AO2 SLP967 P0000 T10171022 FZRANO
PAGH 241334Z AUTO 10006KT 3SM -SN BR SCT010 BKN015 OVC026 M02/M02 A2941 RMK AO2 P0000 FZRANO
PAGH 241330Z AUTO 10005KT 2 1/2SM -SN BR BKN013 OVC021 M02/M02 A2941 RMK AO2 VIS 1 3/4V3 P0000 FZRANO
PAGH 241323Z AUTO 10005KT 1 3/4SM -SN BR BKN016 OVC021 M02/M02 A2941 RMK AO2 P0000 FZRANO
PAGH 241256Z AUTO 10004KT 2 1/2SM -SN BR SCT020 BKN029 OVC050 M02/M03 A2941 RMK AO2 SLP965 P0000 T10221028 FZRANO